sensor_id;sensor_type;location;lat;lon;timestamp;P1;durP1;ratioP1;P2;durP2;ratioP2
63114;SDS011;49208;50.874;6.466;2023-11-21T07:00:50;20.73;;;8.52;;
63114;SDS011;49208;50.874;6.466;2023-11-21T07:03:15;18.08;;;8.98;;
63114;SDS011;49208;50.874;6.466;2023-11-21T07:05:40;23.55;;;10.05;;
63114;SDS011;49208;50.874;6.466;2023-11-21T07:08:06;24.45;;;11.13;;
63114;SDS011;49208;50.874;6.466;2023-11-21T07:10:32;18.55;;;9.68;;
63114;SDS011;49208;50.874;6.466;2023-11-21T07:12:58;20.08;;;9.80;;
63114;SDS011;49208;50.874;6.466;2023-11-21T07:15:23;23.17;;;12.10;;
63114;SDS011;49208;50.874;6.466;2023-11-21T07:17:51;25.67;;;12.60;;
63114;SDS011;49208;50.874;6.466;2023-11-21T07:20:16;27.08;;;12.10;;
63114;SDS011;49208;50.874;6.466;2023-11-21T07:22:42;27.40;;;11.25;;
63114;SDS011;49208;50.874;6.466;2023-11-21T07:25:08;22.15;;;10.60;;
63114;SDS011;49208;50.874;6.466;2023-11-21T07:27:34;24.90;;;11.77;;
63114;SDS011;49208;50.874;6.466;2023-11-21T07:30:01;22.90;;;11.27;;
63114;SDS011;49208;50.874;6.466;2023-11-21T07:32:29;27.58;;;11.90;;
63114;SDS011;49208;50.874;6.466;2023-11-21T07:34:55;26.15;;;10.63;;
63114;SDS011;49208;50.874;6.466;2023-11-21T07:37:22;26.63;;;10.57;;
63114;SDS011;49208;50.874;6.466;2023-11-21T07:39:47;25.92;;;12.15;;
63114;SDS011;49208;50.874;6.466;2023-11-21T07:42:14;28.10;;;12.27;;
63114;SDS011;49208;50.874;6.466;2023-11-21T07:44:40;27.65;;;14.02;;
63114;SDS011;49208;50.874;6.466;2023-11-21T07:47:05;33.72;;;13.27;;
63114;SDS011;49208;50.874;6.466;2023-11-21T07:49:31;30.08;;;12.68;;
63114;SDS011;49208;50.874;6.466;2023-11-21T07:51:56;37.35;;;13.93;;
63114;SDS011;49208;50.874;6.466;2023-11-21T07:54:21;24.27;;;10.80;;
63114;SDS011;49208;50.874;6.466;2023-11-21T07:56:47;36.22;;;14.13;;
63114;SDS011;49208;50.874;6.466;2023-11-21T07:59:12;29.60;;;12.40;;
63114;SDS011;49208;50.874;6.466;2023-11-21T08:01:39;31.20;;;12.82;;
63114;SDS011;49208;50.874;6.466;2023-11-21T08:04:05;37.17;;;16.73;;
63114;SDS011;49208;50.874;6.466;2023-11-21T08:06:31;38.17;;;14.30;;
63114;SDS011;49208;50.874;6.466;2023-11-21T08:08:57;36.25;;;14.57;;
63114;SDS011;49208;50.874;6.466;2023-11-21T08:11:23;39.83;;;14.90;;
63114;SDS011;49208;50.874;6.466;2023-11-21T08:13:48;36.13;;;12.88;;
63114;SDS011;49208;50.874;6.466;2023-11-21T08:16:14;40.75;;;14.35;;
63114;SDS011;49208;50.874;6.466;2023-11-21T08:18:39;41.58;;;15.70;;
63114;SDS011;49208;50.874;6.466;2023-11-21T08:21:06;45.17;;;16.45;;
63114;SDS011;49208;50.874;6.466;2023-11-21T08:23:33;41.72;;;16.10;;
63114;SDS011;49208;50.874;6.466;2023-11-21T08:25:59;44.08;;;17.08;;
63114;SDS011;49208;50.874;6.466;2023-11-21T08:28:24;45.97;;;17.25;;
63114;SDS011;49208;50.874;6.466;2023-11-21T08:30:51;36.22;;;14.80;;
63114;SDS011;49208;50.874;6.466;2023-11-21T08:33:17;37.08;;;14.48;;
63114;SDS011;49208;50.874;6.466;2023-11-21T08:35:42;38.80;;;16.33;;
63114;SDS011;49208;50.874;6.466;2023-11-21T08:38:08;42.40;;;17.60;;
63114;SDS011;49208;50.874;6.466;2023-11-21T08:40:35;40.95;;;15.98;;
63114;SDS011;49208;50.874;6.466;2023-11-21T08:43:00;41.70;;;17.30;;
63114;SDS011;49208;50.874;6.466;2023-11-21T08:45:26;35.05;;;14.98;;
63114;SDS011;49208;50.874;6.466;2023-11-21T08:47:51;32.03;;;12.90;;
63114;SDS011;49208;50.874;6.466;2023-11-21T08:50:17;43.65;;;16.33;;
63114;SDS011;49208;50.874;6.466;2023-11-21T08:52:43;42.10;;;16.85;;
63114;SDS011;49208;50.874;6.466;2023-11-21T08:55:11;38.65;;;16.02;;
63114;SDS011;49208;50.874;6.466;2023-11-21T08:57:37;37.47;;;15.13;;
63114;SDS011;49208;50.874;6.466;2023-11-21T09:00:04;35.58;;;14.88;;
63114;SDS011;49208;50.874;6.466;2023-11-21T09:02:36;44.08;;;15.07;;
63114;SDS011;49208;50.874;6.466;2023-11-21T09:05:02;44.75;;;17.13;;
63114;SDS011;49208;50.874;6.466;2023-11-21T09:07:31;44.28;;;17.33;;
63114;SDS011;49208;50.874;6.466;2023-11-21T09:09:57;35.10;;;13.75;;
63114;SDS011;49208;50.874;6.466;2023-11-21T09:12:22;36.70;;;15.40;;
63114;SDS011;49208;50.874;6.466;2023-11-21T09:14:49;48.55;;;16.38;;
63114;SDS011;49208;50.874;6.466;2023-11-21T09:17:16;38.38;;;14.70;;
63114;SDS011;49208;50.874;6.466;2023-11-21T09:19:41;50.45;;;16.38;;
63114;SDS011;49208;50.874;6.466;2023-11-21T09:22:10;47.58;;;16.92;;
63114;SDS011;49208;50.874;6.466;2023-11-21T09:24:35;39.28;;;14.75;;
63114;SDS011;49208;50.874;6.466;2023-11-21T09:27:01;42.67;;;14.80;;
63114;SDS011;49208;50.874;6.466;2023-11-21T09:29:27;46.00;;;15.40;;
63114;SDS011;49208;50.874;6.466;2023-11-21T09:31:54;42.80;;;15.48;;
63114;SDS011;49208;50.874;6.466;2023-11-21T09:34:20;40.15;;;14.95;;
63114;SDS011;49208;50.874;6.466;2023-11-21T09:36:46;34.05;;;13.30;;
63114;SDS011;49208;50.874;6.466;2023-11-21T09:39:12;38.10;;;14.45;;
63114;SDS011;49208;50.874;6.466;2023-11-21T09:41:43;32.30;;;14.27;;
63114;SDS011;49208;50.874;6.466;2023-11-21T09:44:13;34.13;;;15.55;;
63114;SDS011;49208;50.874;6.466;2023-11-21T09:47:00;31.05;;;11.38;;
63114;SDS011;49208;50.874;6.466;2023-11-21T09:49:27;37.25;;;13.73;;
63114;SDS011;49208;50.874;6.466;2023-11-21T09:51:54;36.50;;;12.50;;
63114;SDS011;49208;50.874;6.466;2023-11-21T09:54:23;43.85;;;13.93;;
63114;SDS011;49208;50.874;6.466;2023-11-21T09:56:49;31.05;;;11.68;;
63114;SDS011;49208;50.874;6.466;2023-11-21T09:59:15;29.92;;;11.48;;
63114;SDS011;49208;50.874;6.466;2023-11-21T10:01:41;38.58;;;15.40;;
63114;SDS011;49208;50.874;6.466;2023-11-21T10:04:10;33.72;;;13.48;;
63114;SDS011;49208;50.874;6.466;2023-11-21T10:06:39;36.67;;;14.00;;
63114;SDS011;49208;50.874;6.466;2023-11-21T10:11:36;37.13;;;13.00;;
63114;SDS011;49208;50.874;6.466;2023-11-21T10:14:10;35.35;;;14.75;;
63114;SDS011;49208;50.874;6.466;2023-11-21T10:16:40;37.67;;;14.38;;
63114;SDS011;49208;50.874;6.466;2023-11-21T10:19:09;30.55;;;12.88;;
63114;SDS011;49208;50.874;6.466;2023-11-21T10:21:35;32.67;;;13.35;;
63114;SDS011;49208;50.874;6.466;2023-11-21T10:24:02;31.65;;;12.85;;
63114;SDS011;49208;50.874;6.466;2023-11-21T10:26:28;29.90;;;11.48;;
63114;SDS011;49208;50.874;6.466;2023-11-21T10:28:59;32.28;;;11.30;;
63114;SDS011;49208;50.874;6.466;2023-11-21T10:31:32;23.85;;;9.15;;
63114;SDS011;49208;50.874;6.466;2023-11-21T10:34:12;28.42;;;11.25;;
63114;SDS011;49208;50.874;6.466;2023-11-21T10:36:44;26.67;;;10.30;;
63114;SDS011;49208;50.874;6.466;2023-11-21T10:39:14;25.95;;;10.50;;
63114;SDS011;49208;50.874;6.466;2023-11-21T10:41:45;28.35;;;9.73;;
63114;SDS011;49208;50.874;6.466;2023-11-21T10:44:17;27.05;;;9.85;;
63114;SDS011;49208;50.874;6.466;2023-11-21T10:46:46;28.00;;;10.23;;
63114;SDS011;49208;50.874;6.466;2023-11-21T10:49:16;31.08;;;11.88;;
63114;SDS011;49208;50.874;6.466;2023-11-21T10:51:45;21.92;;;9.45;;
63114;SDS011;49208;50.874;6.466;2023-11-21T10:54:15;27.08;;;9.85;;
63114;SDS011;49208;50.874;6.466;2023-11-21T10:56:42;30.42;;;10.70;;
63114;SDS011;49208;50.874;6.466;2023-11-21T10:59:12;26.98;;;9.77;;
63114;SDS011;49208;50.874;6.466;2023-11-21T11:01:40;20.83;;;8.90;;
63114;SDS011;49208;50.874;6.466;2023-11-21T11:04:09;22.00;;;8.43;;
63114;SDS011;49208;50.874;6.466;2023-11-21T11:06:53;20.65;;;8.88;;
63114;SDS011;49208;50.874;6.466;2023-11-21T11:09:21;21.35;;;8.43;;
63114;SDS011;49208;50.874;6.466;2023-11-21T11:11:47;23.95;;;9.35;;
63114;SDS011;49208;50.874;6.466;2023-11-21T11:14:14;27.73;;;9.35;;
63114;SDS011;49208;50.874;6.466;2023-11-21T11:16:40;23.70;;;9.68;;
63114;SDS011;49208;50.874;6.466;2023-11-21T11:19:06;34.80;;;10.63;;
63114;SDS011;49208;50.874;6.466;2023-11-21T11:21:51;19.63;;;8.40;;
63114;SDS011;49208;50.874;6.466;2023-11-21T11:33:04;26.35;;;9.27;;
63114;SDS011;49208;50.874;6.466;2023-11-21T11:35:51;21.02;;;8.73;;
63114;SDS011;49208;50.874;6.466;2023-11-21T11:38:20;20.60;;;8.65;;
63114;SDS011;49208;50.874;6.466;2023-11-21T11:40:46;21.60;;;8.20;;
63114;SDS011;49208;50.874;6.466;2023-11-21T11:43:12;17.65;;;8.30;;
63114;SDS011;49208;50.874;6.466;2023-11-21T11:45:37;18.73;;;8.15;;
63114;SDS011;49208;50.874;6.466;2023-11-21T11:48:07;19.08;;;7.53;;
63114;SDS011;49208;50.874;6.466;2023-11-21T11:50:33;23.05;;;9.95;;
63114;SDS011;49208;50.874;6.466;2023-11-21T11:53:12;22.38;;;8.88;;
63114;SDS011;49208;50.874;6.466;2023-11-21T11:55:38;20.20;;;9.60;;
63114;SDS011;49208;50.874;6.466;2023-11-21T11:58:05;20.05;;;8.07;;
63114;SDS011;49208;50.874;6.466;2023-11-21T12:02:58;20.75;;;8.18;;
63114;SDS011;49208;50.874;6.466;2023-11-21T12:05:28;25.83;;;9.18;;
63114;SDS011;49208;50.874;6.466;2023-11-21T12:07:59;19.30;;;8.25;;
63114;SDS011;49208;50.874;6.466;2023-11-21T12:10:28;21.17;;;7.53;;
63114;SDS011;49208;50.874;6.466;2023-11-21T12:12:55;19.33;;;7.68;;
63114;SDS011;49208;50.874;6.466;2023-11-21T12:15:23;17.95;;;7.30;;
63114;SDS011;49208;50.874;6.466;2023-11-21T12:17:50;20.35;;;8.75;;
63114;SDS011;49208;50.874;6.466;2023-11-21T12:20:18;19.58;;;7.97;;
63114;SDS011;49208;50.874;6.466;2023-11-21T12:22:48;20.45;;;7.82;;
63114;SDS011;49208;50.874;6.466;2023-11-21T12:25:18;19.88;;;8.15;;
63114;SDS011;49208;50.874;6.466;2023-11-21T12:28:00;17.58;;;7.75;;
63114;SDS011;49208;50.874;6.466;2023-11-21T12:30:28;18.05;;;7.57;;
63114;SDS011;49208;50.874;6.466;2023-11-21T12:32:58;20.25;;;7.72;;
63114;SDS011;49208;50.874;6.466;2023-11-21T12:37:51;22.00;;;8.40;;
63114;SDS011;49208;50.874;6.466;2023-11-21T12:40:18;20.20;;;7.93;;
63114;SDS011;49208;50.874;6.466;2023-11-21T12:42:44;14.63;;;7.22;;
63114;SDS011;49208;50.874;6.466;2023-11-21T12:48:15;16.58;;;7.30;;
63114;SDS011;49208;50.874;6.466;2023-11-21T12:50:36;20.10;;;8.20;;
63114;SDS011;49208;50.874;6.466;2023-11-21T12:55:33;16.02;;;6.70;;
63114;SDS011;49208;50.874;6.466;2023-11-21T12:58:03;20.15;;;8.23;;
63114;SDS011;49208;50.874;6.466;2023-11-21T13:00:36;16.45;;;7.05;;
63114;SDS011;49208;50.874;6.466;2023-11-21T13:03:07;18.27;;;8.82;;
63114;SDS011;49208;50.874;6.466;2023-11-21T13:05:37;23.25;;;7.30;;
63114;SDS011;49208;50.874;6.466;2023-11-21T13:08:05;23.45;;;8.13;;
63114;SDS011;49208;50.874;6.466;2023-11-21T13:10:37;24.83;;;7.97;;
63114;SDS011;49208;50.874;6.466;2023-11-21T13:13:05;20.85;;;7.55;;
63114;SDS011;49208;50.874;6.466;2023-11-21T13:15:33;20.70;;;7.93;;
63114;SDS011;49208;50.874;6.466;2023-11-21T13:18:01;16.73;;;7.57;;
63114;SDS011;49208;50.874;6.466;2023-11-21T13:20:27;17.80;;;8.07;;
63114;SDS011;49208;50.874;6.466;2023-11-21T13:22:55;20.27;;;8.18;;
63114;SDS011;49208;50.874;6.466;2023-11-21T13:25:26;20.45;;;8.88;;
63114;SDS011;49208;50.874;6.466;2023-11-21T13:27:54;20.65;;;7.93;;
63114;SDS011;49208;50.874;6.466;2023-11-21T13:30:20;20.20;;;7.85;;
63114;SDS011;49208;50.874;6.466;2023-11-21T13:32:51;23.55;;;7.80;;
63114;SDS011;49208;50.874;6.466;2023-11-21T13:35:19;20.02;;;8.07;;
63114;SDS011;49208;50.874;6.466;2023-11-21T13:37:55;19.15;;;8.30;;
63114;SDS011;49208;50.874;6.466;2023-11-21T13:40:24;28.20;;;8.50;;
63114;SDS011;49208;50.874;6.466;2023-11-21T13:45:23;23.05;;;8.98;;
63114;SDS011;49208;50.874;6.466;2023-11-21T13:47:50;24.95;;;8.73;;
63114;SDS011;49208;50.874;6.466;2023-11-21T13:50:18;22.30;;;8.70;;
63114;SDS011;49208;50.874;6.466;2023-11-21T13:52:48;19.05;;;7.75;;
63114;SDS011;49208;50.874;6.466;2023-11-21T13:55:16;16.80;;;8.35;;
63114;SDS011;49208;50.874;6.466;2023-11-21T13:57:42;18.92;;;7.72;;
63114;SDS011;49208;50.874;6.466;2023-11-21T14:00:14;18.25;;;7.07;;
63114;SDS011;49208;50.874;6.466;2023-11-21T14:03:09;20.13;;;7.22;;
63114;SDS011;49208;50.874;6.466;2023-11-21T14:05:42;19.10;;;6.38;;
63114;SDS011;49208;50.874;6.466;2023-11-21T14:08:09;14.60;;;5.47;;
63114;SDS011;49208;50.874;6.466;2023-11-21T14:10:37;13.52;;;6.32;;
63114;SDS011;49208;50.874;6.466;2023-11-21T14:13:08;13.02;;;5.35;;
63114;SDS011;49208;50.874;6.466;2023-11-21T14:15:35;12.40;;;5.82;;
63114;SDS011;49208;50.874;6.466;2023-11-21T14:18:06;11.38;;;5.40;;
63114;SDS011;49208;50.874;6.466;2023-11-21T14:20:36;12.88;;;5.47;;
63114;SDS011;49208;50.874;6.466;2023-11-21T14:23:02;18.23;;;6.30;;
63114;SDS011;49208;50.874;6.466;2023-11-21T14:25:31;12.80;;;5.72;;
63114;SDS011;49208;50.874;6.466;2023-11-21T14:27:57;13.70;;;5.57;;
63114;SDS011;49208;50.874;6.466;2023-11-21T14:30:23;15.18;;;6.40;;
63114;SDS011;49208;50.874;6.466;2023-11-21T14:32:48;16.67;;;7.55;;
63114;SDS011;49208;50.874;6.466;2023-11-21T14:35:15;17.17;;;6.10;;
63114;SDS011;49208;50.874;6.466;2023-11-21T14:37:41;16.67;;;6.22;;
63114;SDS011;49208;50.874;6.466;2023-11-21T14:40:07;14.60;;;6.28;;
63114;SDS011;49208;50.874;6.466;2023-11-21T14:42:33;19.33;;;8.90;;
63114;SDS011;49208;50.874;6.466;2023-11-21T14:45:01;20.98;;;8.07;;
63114;SDS011;49208;50.874;6.466;2023-11-21T14:47:31;17.92;;;7.72;;
63114;SDS011;49208;50.874;6.466;2023-11-21T14:49:57;20.33;;;8.55;;
63114;SDS011;49208;50.874;6.466;2023-11-21T14:52:24;21.33;;;8.80;;
63114;SDS011;49208;50.874;6.466;2023-11-21T14:54:59;18.15;;;8.95;;
63114;SDS011;49208;50.874;6.466;2023-11-21T14:57:44;19.25;;;9.00;;
63114;SDS011;49208;50.874;6.466;2023-11-21T15:00:15;22.35;;;9.95;;
63114;SDS011;49208;50.874;6.466;2023-11-21T15:02:59;21.10;;;9.15;;
63114;SDS011;49208;50.874;6.466;2023-11-21T15:05:25;20.23;;;8.60;;
63114;SDS011;49208;50.874;6.466;2023-11-21T15:07:52;17.92;;;7.22;;
63114;SDS011;49208;50.874;6.466;2023-11-21T15:10:21;21.30;;;9.10;;
63114;SDS011;49208;50.874;6.466;2023-11-21T15:12:54;20.13;;;8.98;;
63114;SDS011;49208;50.874;6.466;2023-11-21T15:15:20;19.48;;;8.52;;
63114;SDS011;49208;50.874;6.466;2023-11-21T15:17:46;24.88;;;9.95;;
63114;SDS011;49208;50.874;6.466;2023-11-21T15:20:12;25.27;;;9.27;;
63114;SDS011;49208;50.874;6.466;2023-11-21T15:22:46;24.70;;;9.85;;
63114;SDS011;49208;50.874;6.466;2023-11-21T15:25:11;21.35;;;8.40;;
63114;SDS011;49208;50.874;6.466;2023-11-21T15:27:38;28.17;;;9.20;;
63114;SDS011;49208;50.874;6.466;2023-11-21T15:30:03;17.05;;;6.25;;
63114;SDS011;49208;50.874;6.466;2023-11-21T15:32:29;15.23;;;6.72;;
63114;SDS011;49208;50.874;6.466;2023-11-21T15:34:54;21.10;;;7.38;;
63114;SDS011;49208;50.874;6.466;2023-11-21T15:37:20;22.50;;;7.97;;
63114;SDS011;49208;50.874;6.466;2023-11-21T15:39:45;21.88;;;7.30;;
63114;SDS011;49208;50.874;6.466;2023-11-21T15:42:11;22.15;;;10.27;;
63114;SDS011;49208;50.874;6.466;2023-11-21T15:44:37;24.52;;;9.45;;
63114;SDS011;49208;50.874;6.466;2023-11-21T15:47:03;17.75;;;8.38;;
63114;SDS011;49208;50.874;6.466;2023-11-21T15:49:30;22.08;;;9.23;;
63114;SDS011;49208;50.874;6.466;2023-11-21T15:51:59;22.65;;;9.65;;
63114;SDS011;49208;50.874;6.466;2023-11-21T15:54:25;26.55;;;10.32;;
63114;SDS011;49208;50.874;6.466;2023-11-21T15:56:52;20.33;;;10.27;;
63114;SDS011;49208;50.874;6.466;2023-11-21T15:59:22;24.00;;;10.32;;
63114;SDS011;49208;50.874;6.466;2023-11-21T16:01:49;21.35;;;10.38;;
63114;SDS011;49208;50.874;6.466;2023-11-21T16:04:14;21.48;;;10.48;;
63114;SDS011;49208;50.874;6.466;2023-11-21T16:06:43;20.05;;;10.35;;
63114;SDS011;49208;50.874;6.466;2023-11-21T16:09:10;21.67;;;10.20;;
63114;SDS011;49208;50.874;6.466;2023-11-21T16:11:56;20.50;;;8.27;;
63114;SDS011;49208;50.874;6.466;2023-11-21T16:14:26;18.05;;;8.95;;
63114;SDS011;49208;50.874;6.466;2023-11-21T16:17:10;13.88;;;8.00;;
63114;SDS011;49208;50.874;6.466;2023-11-21T16:19:37;15.27;;;8.27;;
63114;SDS011;49208;50.874;6.466;2023-11-21T16:24:28;15.32;;;7.68;;
63114;SDS011;49208;50.874;6.466;2023-11-21T16:26:55;16.02;;;8.00;;
63114;SDS011;49208;50.874;6.466;2023-11-21T16:29:20;17.70;;;9.23;;
63114;SDS011;49208;50.874;6.466;2023-11-21T16:31:46;18.38;;;9.00;;
63114;SDS011;49208;50.874;6.466;2023-11-21T16:34:14;19.52;;;10.15;;
63114;SDS011;49208;50.874;6.466;2023-11-21T16:36:42;18.23;;;9.20;;
63114;SDS011;49208;50.874;6.466;2023-11-21T16:39:11;20.95;;;9.60;;
63114;SDS011;49208;50.874;6.466;2023-11-21T16:41:39;20.55;;;12.20;;
63114;SDS011;49208;50.874;6.466;2023-11-21T16:44:05;26.17;;;12.55;;
63114;SDS011;49208;50.874;6.466;2023-11-21T16:46:31;21.75;;;12.63;;
63114;SDS011;49208;50.874;6.466;2023-11-21T16:48:56;28.08;;;16.08;;
63114;SDS011;49208;50.874;6.466;2023-11-21T16:51:22;22.58;;;13.32;;
63114;SDS011;49208;50.874;6.466;2023-11-21T16:53:47;29.20;;;17.58;;
63114;SDS011;49208;50.874;6.466;2023-11-21T16:56:13;32.75;;;17.92;;
63114;SDS011;49208;50.874;6.466;2023-11-21T16:58:38;26.83;;;13.90;;
63114;SDS011;49208;50.874;6.466;2023-11-21T17:01:04;26.73;;;15.02;;
63114;SDS011;49208;50.874;6.466;2023-11-21T17:03:32;21.45;;;11.40;;
63114;SDS011;49208;50.874;6.466;2023-11-21T17:05:57;24.85;;;12.98;;
63114;SDS011;49208;50.874;6.466;2023-11-21T17:08:22;24.70;;;14.32;;
63114;SDS011;49208;50.874;6.466;2023-11-21T17:10:49;23.83;;;13.32;;
63114;SDS011;49208;50.874;6.466;2023-11-21T17:13:15;28.15;;;13.57;;
63114;SDS011;49208;50.874;6.466;2023-11-21T17:15:44;51.45;;;28.92;;
63114;SDS011;49208;50.874;6.466;2023-11-21T17:18:11;56.63;;;28.15;;
63114;SDS011;49208;50.874;6.466;2023-11-21T17:20:36;27.38;;;13.95;;
63114;SDS011;49208;50.874;6.466;2023-11-21T17:23:02;29.30;;;14.40;;
63114;SDS011;49208;50.874;6.466;2023-11-21T17:25:29;25.40;;;13.98;;
63114;SDS011;49208;50.874;6.466;2023-11-21T17:27:55;23.58;;;12.25;;
63114;SDS011;49208;50.874;6.466;2023-11-21T17:30:21;27.25;;;14.10;;
63114;SDS011;49208;50.874;6.466;2023-11-21T17:32:47;23.15;;;13.05;;
63114;SDS011;49208;50.874;6.466;2023-11-21T17:35:13;24.27;;;12.55;;
63114;SDS011;49208;50.874;6.466;2023-11-21T17:37:38;18.73;;;10.65;;
63114;SDS011;49208;50.874;6.466;2023-11-21T17:40:04;20.13;;;11.73;;
63114;SDS011;49208;50.874;6.466;2023-11-21T17:42:32;24.48;;;11.63;;
63114;SDS011;49208;50.874;6.466;2023-11-21T17:44:58;20.80;;;10.82;;
63114;SDS011;49208;50.874;6.466;2023-11-21T17:47:23;25.60;;;11.55;;
63114;SDS011;49208;50.874;6.466;2023-11-21T17:49:50;18.60;;;11.23;;
63114;SDS011;49208;50.874;6.466;2023-11-21T17:52:16;23.88;;;11.45;;
63114;SDS011;49208;50.874;6.466;2023-11-21T17:54:43;21.92;;;12.20;;
63114;SDS011;49208;50.874;6.466;2023-11-21T17:57:09;24.45;;;13.77;;
63114;SDS011;49208;50.874;6.466;2023-11-21T17:59:36;19.67;;;11.23;;
63114;SDS011;49208;50.874;6.466;2023-11-21T18:02:03;16.95;;;9.98;;
63114;SDS011;49208;50.874;6.466;2023-11-21T18:04:29;19.42;;;10.93;;
63114;SDS011;49208;50.874;6.466;2023-11-21T18:06:55;19.10;;;10.30;;
63114;SDS011;49208;50.874;6.466;2023-11-21T18:09:23;17.98;;;9.38;;
63114;SDS011;49208;50.874;6.466;2023-11-21T18:11:49;18.13;;;8.80;;
63114;SDS011;49208;50.874;6.466;2023-11-21T18:14:14;15.70;;;8.23;;
63114;SDS011;49208;50.874;6.466;2023-11-21T18:16:40;17.65;;;8.88;;
63114;SDS011;49208;50.874;6.466;2023-11-21T18:19:07;18.08;;;9.65;;
63114;SDS011;49208;50.874;6.466;2023-11-21T18:21:33;16.92;;;10.10;;
63114;SDS011;49208;50.874;6.466;2023-11-21T18:24:02;19.42;;;9.88;;
63114;SDS011;49208;50.874;6.466;2023-11-21T18:26:28;21.92;;;10.68;;
63114;SDS011;49208;50.874;6.466;2023-11-21T18:28:54;19.27;;;9.73;;
63114;SDS011;49208;50.874;6.466;2023-11-21T18:31:19;18.77;;;10.07;;
63114;SDS011;49208;50.874;6.466;2023-11-21T18:33:45;27.35;;;15.32;;
63114;SDS011;49208;50.874;6.466;2023-11-21T18:36:11;23.33;;;12.50;;
63114;SDS011;49208;50.874;6.466;2023-11-21T18:38:37;18.70;;;10.88;;
63114;SDS011;49208;50.874;6.466;2023-11-21T18:41:03;22.50;;;11.85;;
63114;SDS011;49208;50.874;6.466;2023-11-21T18:43:29;20.92;;;12.48;;
63114;SDS011;49208;50.874;6.466;2023-11-21T18:45:54;22.00;;;12.35;;
63114;SDS011;49208;50.874;6.466;2023-11-21T18:48:20;20.65;;;11.15;;
63114;SDS011;49208;50.874;6.466;2023-11-21T18:50:45;19.88;;;10.63;;
63114;SDS011;49208;50.874;6.466;2023-11-21T18:53:11;21.25;;;11.05;;
63114;SDS011;49208;50.874;6.466;2023-11-21T18:55:37;18.75;;;10.75;;
63114;SDS011;49208;50.874;6.466;2023-11-21T18:58:03;20.85;;;10.50;;
63114;SDS011;49208;50.874;6.466;2023-11-21T19:00:29;20.83;;;10.50;;
63114;SDS011;49208;50.874;6.466;2023-11-21T19:02:54;26.13;;;13.32;;
63114;SDS011;49208;50.874;6.466;2023-11-21T19:05:19;19.17;;;10.90;;
63114;SDS011;49208;50.874;6.466;2023-11-21T19:07:45;19.88;;;10.48;;
63114;SDS011;49208;50.874;6.466;2023-11-21T19:10:10;17.30;;;10.57;;
63114;SDS011;49208;50.874;6.466;2023-11-21T19:12:36;20.40;;;11.13;;
63114;SDS011;49208;50.874;6.466;2023-11-21T19:15:05;19.10;;;9.95;;
63114;SDS011;49208;50.874;6.466;2023-11-21T19:17:33;17.80;;;10.15;;
63114;SDS011;49208;50.874;6.466;2023-11-21T19:19:59;17.75;;;8.98;;
63114;SDS011;49208;50.874;6.466;2023-11-21T19:22:25;17.38;;;9.60;;
63114;SDS011;49208;50.874;6.466;2023-11-21T19:24:52;20.52;;;9.38;;
63114;SDS011;49208;50.874;6.466;2023-11-21T19:27:17;15.38;;;8.45;;
63114;SDS011;49208;50.874;6.466;2023-11-21T19:29:43;15.60;;;8.90;;
63114;SDS011;49208;50.874;6.466;2023-11-21T19:32:08;16.20;;;9.15;;
63114;SDS011;49208;50.874;6.466;2023-11-21T19:34:33;14.15;;;8.52;;
63114;SDS011;49208;50.874;6.466;2023-11-21T19:37:00;15.88;;;8.65;;
63114;SDS011;49208;50.874;6.466;2023-11-21T19:39:25;16.00;;;7.72;;
63114;SDS011;49208;50.874;6.466;2023-11-21T19:41:51;14.25;;;8.27;;
63114;SDS011;49208;50.874;6.466;2023-11-21T19:44:17;17.02;;;8.30;;
63114;SDS011;49208;50.874;6.466;2023-11-21T19:46:42;14.40;;;8.30;;
63114;SDS011;49208;50.874;6.466;2023-11-21T19:49:07;16.08;;;8.90;;
63114;SDS011;49208;50.874;6.466;2023-11-21T19:51:35;14.43;;;7.50;;
63114;SDS011;49208;50.874;6.466;2023-11-21T19:54:01;15.77;;;7.95;;
63114;SDS011;49208;50.874;6.466;2023-11-21T19:56:26;13.77;;;7.47;;
63114;SDS011;49208;50.874;6.466;2023-11-21T19:58:51;13.30;;;6.97;;
63114;SDS011;49208;50.874;6.466;2023-11-21T20:01:17;13.60;;;6.85;;
63114;SDS011;49208;50.874;6.466;2023-11-21T20:03:42;9.90;;;5.65;;
63114;SDS011;49208;50.874;6.466;2023-11-21T20:06:09;12.80;;;6.85;;
63114;SDS011;49208;50.874;6.466;2023-11-21T20:08:35;10.48;;;6.03;;
63114;SDS011;49208;50.874;6.466;2023-11-21T20:11:03;10.70;;;6.10;;
63114;SDS011;49208;50.874;6.466;2023-11-21T20:13:29;9.98;;;5.43;;
63114;SDS011;49208;50.874;6.466;2023-11-21T20:15:54;10.98;;;6.60;;
63114;SDS011;49208;50.874;6.466;2023-11-21T20:18:20;10.95;;;6.28;;
63114;SDS011;49208;50.874;6.466;2023-11-21T20:20:45;10.82;;;6.20;;
63114;SDS011;49208;50.874;6.466;2023-11-21T20:23:11;9.48;;;6.18;;
63114;SDS011;49208;50.874;6.466;2023-11-21T20:25:38;10.38;;;6.57;;
63114;SDS011;49208;50.874;6.466;2023-11-21T20:28:03;9.45;;;6.13;;
63114;SDS011;49208;50.874;6.466;2023-11-21T20:30:29;9.93;;;6.28;;
63114;SDS011;49208;50.874;6.466;2023-11-21T20:32:57;10.75;;;6.70;;
63114;SDS011;49208;50.874;6.466;2023-11-21T20:35:23;10.23;;;6.22;;
63114;SDS011;49208;50.874;6.466;2023-11-21T20:37:48;9.90;;;6.68;;
63114;SDS011;49208;50.874;6.466;2023-11-21T20:40:14;11.75;;;6.90;;
63114;SDS011;49208;50.874;6.466;2023-11-21T20:42:41;9.18;;;6.13;;
63114;SDS011;49208;50.874;6.466;2023-11-21T20:45:14;10.70;;;6.35;;
63114;SDS011;49208;50.874;6.466;2023-11-21T20:47:40;10.38;;;6.10;;
63114;SDS011;49208;50.874;6.466;2023-11-21T20:50:07;9.82;;;5.85;;
63114;SDS011;49208;50.874;6.466;2023-11-21T20:52:33;13.38;;;7.60;;
63114;SDS011;49208;50.874;6.466;2023-11-21T20:54:59;12.82;;;6.60;;
63114;SDS011;49208;50.874;6.466;2023-11-21T20:57:25;10.60;;;6.50;;
63114;SDS011;49208;50.874;6.466;2023-11-21T20:59:50;9.95;;;6.53;;
63114;SDS011;49208;50.874;6.466;2023-11-21T21:02:16;9.93;;;7.18;;
63114;SDS011;49208;50.874;6.466;2023-11-21T21:04:42;11.70;;;6.35;;
63114;SDS011;49208;50.874;6.466;2023-11-21T21:07:08;10.90;;;6.10;;
63114;SDS011;49208;50.874;6.466;2023-11-21T21:09:37;11.02;;;6.28;;
63114;SDS011;49208;50.874;6.466;2023-11-21T21:12:03;10.50;;;5.90;;
63114;SDS011;49208;50.874;6.466;2023-11-21T21:14:29;12.73;;;6.13;;
63114;SDS011;49208;50.874;6.466;2023-11-21T21:16:55;11.20;;;6.20;;
63114;SDS011;49208;50.874;6.466;2023-11-21T21:19:21;11.00;;;6.47;;
63114;SDS011;49208;50.874;6.466;2023-11-21T21:21:46;16.58;;;7.53;;
63114;SDS011;49208;50.874;6.466;2023-11-21T21:24:12;11.93;;;6.38;;
63114;SDS011;49208;50.874;6.466;2023-11-21T21:26:37;13.02;;;7.13;;
63114;SDS011;49208;50.874;6.466;2023-11-21T21:29:03;15.20;;;7.53;;
63114;SDS011;49208;50.874;6.466;2023-11-21T21:33:57;15.95;;;6.90;;
63114;SDS011;49208;50.874;6.466;2023-11-21T21:36:23;12.70;;;7.03;;
63114;SDS011;49208;50.874;6.466;2023-11-21T21:38:48;12.85;;;6.13;;
63114;SDS011;49208;50.874;6.466;2023-11-21T21:41:16;15.65;;;6.75;;
63114;SDS011;49208;50.874;6.466;2023-11-21T21:43:46;11.93;;;7.10;;
63114;SDS011;49208;50.874;6.466;2023-11-21T21:46:15;12.30;;;7.15;;
63114;SDS011;49208;50.874;6.466;2023-11-21T21:48:41;13.23;;;6.65;;
63114;SDS011;49208;50.874;6.466;2023-11-21T21:51:13;12.82;;;7.25;;
63114;SDS011;49208;50.874;6.466;2023-11-21T21:53:40;12.25;;;6.65;;
63114;SDS011;49208;50.874;6.466;2023-11-21T21:56:06;14.15;;;7.20;;
63114;SDS011;49208;50.874;6.466;2023-11-21T21:58:31;11.38;;;6.93;;